Hauptseite
METAR-TAF:

METAR-TAF

Flughäfen :

Flughafen Augsburg

Augsburg, Deutschland

Breite: 48-26N, Länge: 010-56E, Höhe: 461 m

Beobachtung

Neuester Wetterbericht von vor 36 Minuten, um 14:50 UTC
Wind 1 kt aus unterschiedlichen Richtungen
Temperatur 7°C
Luftfeuchtigkeit 61%
Luftdruck 1022 hPa
Sichtweite 10 km oder mehr
keine Wolken unter 1500 m und keine Kumulonimbus oder Gewitterwolken

METAR: EDMA 241450Z VRB01KT CAVOK 07/00 Q1022

Zeit: 16:26 (15:26 UTC)

Prognose

Neuester Wetterbericht von vor 1 Stunde und 26 Minuten, um 14:00 UTC
Gültige Prognose vom 24 um 15 UTC bis 24 um 24 UTC
Wind 2 kt aus unterschiedlichen Richtungen
Sichtweite 10 km oder mehr
keine Wolken unter 1500 m und keine Kumulonimbus oder Gewitterwolken
Zeitweise
vom 24 um 19 UTC bis 24 um 24 UTC
Sichtweite: 1500 m
Nebelschwaden

TAF: EDMA 241400Z 2415/2424 VRB02KT CAVOK TEMPO 2419/2424 1500 BCFG

Wetterbeobachtungen und Prognosen von mehr als 4000 Flughäfen (METAR und TAF Bericht).

Die verfügbaren Stationen werden durch gelbe und rote Markierungen auf der Karte dargestellt.

Führen Sie die Maus auf sie, um den Namen der Station zu sehen.

Darauf klicken, um die Beobachtung von Wetterbeobachtungen und Prognosen zu sehen.

Um die Karte zu ändern : klicken Sie auf den grünen Tasten mit einem schwarzen Kreuz Zum Vergrößern, auf den grünen Button mit einem Gedankenstrich zu verkleinern, oder auf die grünen Pfeile für benachbarte Karten.


METAR-TAF: